Datum max min   Außentemperatur Tagesdurchschnitt Außenfeuchte Tagesdurchschnitt Taupunkt Tagesdurchschnitt Windchill Tagesdurchschnitt Windgeschwindigkeit Tagesdurchschnitt   Mindesttemperatur Höchsttemperatur Höchste Windgeschwindigkeit  Tägliche Niederschlagsmenge 
  °C % °C °C km/h   °C °C km/h mm/m²
 
mittelwert
01.01.1977     1005,4 -5,0           -7,1 -3,1   1,3
02.01.1977     1013,3 -1,8           -5,0 1,0   0,0
03.01.1977     1025,0 0,0           -1,9 1,4   0,0
04.01.1977     1031,7 -2,6           -5,9 -0,1   0,0
05.01.1977     1029,3 -2,7           -3,1 -1,5   0,0
06.01.1977     1028,7 -2,7           -3,2 -2,0   0,0
07.01.1977     1027,0 -2,1           -3,3 -1,5   0,3
08.01.1977     1022,3 -2,2           -3,0 -0,5   5,1
09.01.1977     1011,1 -1,4           -6,1 -0,4   0,8
10.01.1977     997,3 -0,6           -1,6 0,1   4,3
11.01.1977     995,4 -0,5           -3,0 0,3   7,6
12.01.1977     993,5 -2,3           -3,0 -0,3   6,1
13.01.1977     1007,4 -7,4           -10,8 -2,9   0,0
14.01.1977     1002,3 -5,4           -11,6 -3,2   0,2
15.01.1977     1003,7 -1,8           -5,7 -0,3   0,8
16.01.1977     1009,0 -0,8           -1,1 -0,3   1,5
17.01.1977     1020,3 -2,0           -3,0 -0,9   0,2
18.01.1977     1019,1 -8,4           -12,0 -2,1   0,0
19.01.1977     1010,2 -8,7           -17,8 -5,3   2,7
20.01.1977     1010,7 -2,1           -5,8 -0,3   0,0
21.01.1977     1012,9 -3,1           -7,0 -1,0   0,0
22.01.1977     1010,1 -4,0           -7,7 -1,5   0,4
23.01.1977     1006,5 0,6           -4,0 2,8   0,0
24.01.1977     1003,9 1,6           4,3 4,3   0,0
25.01.1977     997,7 2,8           3,8 5,7   5,2
26.01.1977     996,9 4,7           3,0 5,0   0,4
27.01.1977     1001,3 2,6           2,2 4,1   3,5
28.01.1977     1004,3 1,8           -0,2 5,6   0,0
29.01.1977     997,4 0,2           -2,0 1,3   3,8
30.01.1977     1009,0 -4,0           -5,4 0,6   0,6
31.01.1977     1013,1 -5,3           -6,4 -3,9   0,0
01.02.1977     1012,5 -8,0           -10,0 -2,5   0,0
02.02.1977     1013,8 -6,5           -11,6 -0,9   0,0
03.02.1977     1011,8 -4,8           -10,7 -0,6   0,1
04.02.1977     1012,6 0,3           -4,5 1,5   0,2
05.02.1977     1012,3 2,7           0,0 5,0   4,3
06.02.1977     1011,0 3,4           2,2 4,7   2,9
07.02.1977     1009,0 4,5           1,5 5,6   10,2
08.02.1977     1003,1 3,8           3,4 5,7   1,4
09.02.1977     1008,9 0,3           -0,8 3,4   0,0
10.02.1977     995,3 3,8           -2,2 6,1   4,1
11.02.1977     994,1 3,0           2,1 6,1   4,4
12.02.1977     996,7 2,3           -1,3 8,5   0,7
13.02.1977     1008,3 1,7           1,0 3,6   0,3
14.02.1977     1008,1 0,6           -2,6 5,2   0,0
15.02.1977     1007,5 -1,3           -1,6 -0,4   0,0
16.02.1977     1007,3 0,4           -2,5 2,1   1,5
17.02.1977     1010,9 1,2           -0,6 4,3   0,5
18.02.1977     1010,1 3,6           0,5 6,9   1,2
19.02.1977     1005,4 3,2           0,6 8,8   9,6
20.02.1977     998,6 5,6           0,8 8,1   12,6
21.02.1977     999,4 4,3           2,6 8,2   1,1
22.02.1977     1006,1 4,2           1,5 8,7   0,0
23.02.1977     1010,2 3,5           0,2 6,0   0,0
24.02.1977     1008,9 4,8           0,8 11,3   0,0
25.02.1977     1006,5 4,0           1,3 5,6   0,2
26.02.1977     1011,5 -1,9           -4,0 3,2   3,0
27.02.1977     1017,9 -5,3           -7,8 -2,2   0,4
28.02.1977     1027,0 -3,8           -6,4 -0,9   0,2
01.03.1977     1027,8 -2,7           -3,9 0,8   0,0
02.03.1977     1020,7 0,3           -5,6 1,6   1,8
03.03.1977     1015,4 7,0           1,6 8,5   0,6
04.03.1977     1012,6 5,1           2,6 9,3   7,0
05.03.1977     1019,9 3,6           1,6 6,1   0,0
06.03.1977     1022,9 4,0           1,9 9,7   0,0
07.03.1977     1025,3 4,6           -1,9 9,8   1,4
08.03.1977     1029,3 5,9           1,5 10,9   1,0
09.03.1977     1023,8 6,8           -1,4 14,8   0,0
10.03.1977     1017,4 7,9           3,9 14,4   0,0
11.03.1977     1007,0 7,1           0,2 11,4   0,0
12.03.1977     1008,3 5,5           3,8 8,6   29,5
13.03.1977     1011,8 3,6           0,5 7,6   0,4
14.03.1977     1016,6 4,5           3,3 7,2   2,9
15.03.1977     1025,5 2,7           0,8 8,0   0,7
16.03.1977     1022,2 7,4           -0,5 14,0   0,0
17.03.1977     1017,8 9,3           3,8 15,7   0,0
18.03.1977     1013,5 8,2           4,0 13,1   10,4
19.03.1977     1010,1 4,6           3,9 7,8   4,5
20.03.1977     1009,7 4,7           2,6 9,1   0,0
21.03.1977     1012,2 4,7           0,9 7,6   0,0
22.03.1977     1014,2 5,8           3,0 9,9   0,0
23.03.1977     1017,0 7,8           4,9 10,5   0,0
24.03.1977     1016,9 11,9           6,6 18,8   0,0
25.03.1977     1022,6 8,8           7,6 12,1   0,0
26.03.1977     1016,5 8,2           5,1 11,7   0,8
27.03.1977     1004,2 8,8           6,9 12,1   3,3
28.03.1977     1003,1 0,2           -2,3 8,1   8,5
29.03.1977     1020,1 -4,4           -5,3 -2,2   0,1
30.03.1977     1022,2 -5,8           -8,7 -2,5   0,0
31.03.1977     1015,5 -5,3           -8,3 -2,5   0,0
01.04.1977     1008,3 3,7           -5,9 7,0   2,1
02.04.1977     1005,7 4,5           2,0 9,6   0,0
03.04.1977     1001,7 3,4           -0,7 11,0   5,6
04.04.1977     1011,1 3,3           -0,3 8,0   1,6
05.04.1977     1015,4 3,0           0,3 5,4   0,0
06.04.1977     1007,3 2,6           1,8 4,2   0,4
07.04.1977     1003,8 1,3           -1,0 6,2   0,9
08.04.1977     1004,7 -0,6           -2,7 3,0   2,2
09.04.1977     1004,6 -1,2           -1,7 0,2   1,0
10.04.1977     1007,8 -2,9           -4,5 0,0   0,7
11.04.1977     1011,1 -0,8           -3,9 3,7   1,2
12.04.1977     1013,8 2,0           -1,1 6,5   2,2
13.04.1977     1009,1 4,0           1,3 6,8   8,0
14.04.1977     1007,4 0,8           -0,5 3,9   0,7
15.04.1977     1009,3 1,4           -0,6 3,8   4,3
16.04.1977     1017,9 0,0           -1,8 5,0   0,2
17.04.1977     1015,0 5,8           -4,2 11,9   0,0
18.04.1977     1019,0 1,6           -0,1 6,5   0,0
19.04.1977     1022,9 1,2           -2,1 5,5   0,0
20.04.1977     1027,4 3,5           -2,4 9,7   0,0
21.04.1977     1022,3 7,0           -1,3 10,1   0,0
22.04.1977     1014,3 11,0           7,0 16,1   1,2
23.04.1977     1006,3 7,6           5,0 12,4   5,6
24.04.1977     1005,4 3,3           2,1 6,9   6,9
25.04.1977     1016,9 6,9           1,5 11,5   0,0
26.04.1977     1014,3 10,8           6,7 16,3   1,5
27.04.1977     1013,3 8,4           6,2 12,5   0,1
28.04.1977     1013,0 8,4           0,4 13,2   0,4
29.04.1977     1011,5 8,7           7,1 11,6   13,2
30.04.1977     1012,1 5,9           5,2 7,2   12,9
01.05.1977     1009,8 9,0           5,5 15,6   5,0
02.05.1977     1017,0 10,2           5,9 15,6   0,0
03.05.1977     1013,7 11,9           4,5 19,5   0,0
04.05.1977     1006,5 17,6           7,0 25,7   0,0
05.05.1977     1012,6 8,4           4,9 16,4   2,7
06.05.1977     1020,9 8,2           2,2 13,2   0,0
07.05.1977     1016,9 7,3           2,0 12,6   0,1
08.05.1977     1011,1 7,0           3,4 11,6   0,0
09.05.1977     1015,9 8,1           3,9 13,3   0,0
10.05.1977     1015,9 9,6           2,0 14,2   0,0
11.05.1977     1013,8 11,6           6,1 14,9   0,1
12.05.1977     1004,9 13,0           8,5 19,4   1,6
13.05.1977     1003,7 9,8           8,2 14,1   0,0
14.05.1977     1005,0 9,3           4,7 14,0   0,0
15.05.1977     1006,9 8,2           5,0 12,0   0,0
16.05.1977     1009,9 9,0           6,6 12,5   0,4
17.05.1977     1018,2 9,9           3,3 15,0   0,0
18.05.1977     1022,9 11,6           2,4 16,8   0,0
19.05.1977     1017,8 8,5           7,3 10,9   3,6
20.05.1977     1011,9 7,6           6,6 9,5   0,5
21.05.1977     1018,6 5,6           4,5 7,2   0,1
22.05.1977     1022,9 7,5           3,5 13,0   0,0
23.05.1977     1022,6 9,8           2,0 14,3   0,0
24.05.1977     1021,7 12,4           2,3 18,2   0,0
25.05.1977     1018,2 13,7           4,5 19,4   0,0
26.05.1977     1020,5 8,7           2,2 14,5   0,0
27.05.1977     1022,5 9,1           0,5 14,4   0,0
28.05.1977     1020,3 12,1           0,5 18,0   0,0
29.05.1977     1014,6 14,0           3,5 21,0   0,0
30.05.1977     1014,1 9,4           7,0 14,1   0,0
31.05.1977     1020,9 7,1           3,6 11,2   0,0
01.06.1977     1023,4 7,2           -0,7 11,6   0,0
02.06.1977     1021,3 8,7           2,4 11,5   0,0
03.06.1977     1016,7 9,4           5,3 12,8   1,7
04.06.1977     1014,2 10,1           8,2 13,0   1,2
05.06.1977     1007,4 11,3           8,0 16,2   9,1
06.06.1977     1005,1 10,5           8,1 12,9   4,3
07.06.1977     1006,5 13,1           9,3 17,5   0,8
08.06.1977     1014,2 12,2           7,4 16,5   0,2
09.06.1977     1013,9 19,2           6,8 25,8   0,0
10.06.1977     1010,3 20,7           13,8 28,2   9,7
11.06.1977     1017,8 13,1           10,6 18,4   0,2
12.06.1977     1016,6 15,4           10,5 19,8   0,0
13.06.1977     1011,7 21,3           11,5 27,2   0,0
14.06.1977     1009,4 15,9           13,7 24,1   1,6
15.06.1977     1010,6 14,1           12,0 16,6   1,0
16.06.1977     1012,7 14,0           12,6 15,6   0,0
17.06.1977     1014,7 17,4           13,2 22,1   0,0
18.06.1977     1012,1 17,4           11,0 24,5   16,1
19.06.1977     1009,4 12,7           12,1 16,4   15,9
20.06.1977     1014,2 13,2           12,0 15,8   2,2
21.06.1977     1016,2 13,1           10,3 15,9   0,2
22.06.1977     1016,5 14,8           12,3 19,0   0,0
23.06.1977     1017,8 15,1           10,0 20,0   0,0
24.06.1977     1017,0 17,2           9,8 23,5   0,0
25.06.1977     1014,6 15,2           13,2 22,0   18,3
26.06.1977     1013,4 13,0           11,8 19,5   8,8
27.06.1977     1018,5 11,6           8,6 15,0   0,0
28.06.1977     1014,6 14,4           7,4 19,0   0,0
29.06.1977     1010,3 15,6           8,9 22,5   0,0
30.06.1977     1018,5 13,6           10,4 17,3   0,0
01.07.1977     1021,9 15,0           7,2 19,1   0,0
02.07.1977     1021,4 15,9           13,6 20,6   0,0
03.07.1977     1018,9 16,8           8,7 24,1   0,0
04.07.1977     1016,1 16,7           10,7 21,6   0,0
05.07.1977     1012,6 16,3           10,0 22,5   0,0
06.07.1977     1012,4 17,9           8,4 22,0   2,2
07.07.1977     1011,9 14,6           13,4 19,3   1,2
08.07.1977     1009,4 14,8           8,9 20,2   0,3
09.07.1977     1012,4 14,0           12,1 17,8   0,5
10.07.1977     1017,3 14,9           12,2 19,3   5,7
11.07.1977     1020,3 18,6           10,8 24,1   0,0
12.07.1977     1017,6 21,0           10,9 27,9   0,0
13.07.1977     1013,9 16,7           12,4 27,4   18,0
14.07.1977     1012,3 11,1           9,3 14,9   3,4
15.07.1977     1016,3 10,1           8,3 14,6   2,2
16.07.1977     1018,4 13,0           5,2 18,5   0,0
17.07.1977     1015,9 14,0           8,0 17,8   0,0
18.07.1977     1010,5 14,4           10,3 17,6   4,7
19.07.1977     1012,2 12,8           11,3 15,5   0,0
20.07.1977     1012,7 14,6           9,3 20,0   0,0
21.07.1977     1016,8 11,5           9,7 17,5   0,0
22.07.1977     1020,3 13,0           6,6 16,9   0,0
23.07.1977     1018,4 16,4           8,8 20,3   0,0
24.07.1977     1009,1 17,1           13,3 22,5   9,9
25.07.1977     1000,5 12,4           11,2 15,9   19,5
26.07.1977     1006,1 10,2           9,0 14,3   4,6
27.07.1977     1012,4 12,2           8,5 16,3   0,2
28.07.1977     1013,9 14,4           6,6 19,5   0,0
29.07.1977     1014,2 17,1           10,5 21,4   0,0
30.07.1977     1011,4 19,0           13,1 24,8   0,0
31.07.1977     1007,5 13,5           12,1 18,1   2,4
01.08.1977     1014,8 11,2           10,2 12,6   3,8
02.08.1977     1015,2 13,4           11,0 17,0   0,0
03.08.1977     1014,2 14,2           11,9 20,0   0,0
04.08.1977     1017,7 16,6           7,5 23,6   0,0
05.08.1977     1017,3 16,8           8,4 24,0   0,0
06.08.1977     1017,9 18,0           10,3 25,1   0,7
07.08.1977     1014,1 18,6           14,4 25,5   0,6
08.08.1977     1015,2 15,5           13,4 20,4   1,2
09.08.1977     1017,7 15,5           10,3 22,3   0,0
10.08.1977     1019,0 13,0           12,5 14,6   7,5
11.08.1977     1017,1 11,4           10,9 12,7   10,2
12.08.1977     1013,9 12,5           10,4 19,0   1,3
13.08.1977     1014,6 13,2           6,9 19,2   1,7
14.08.1977     1017,3 14,2           11,5 18,6   2,5
15.08.1977     1020,5 12,9           11,3 16,9   0,7
16.08.1977     1019,4 13,7           10,3 19,7   0,0
17.08.1977     1013,9 14,5           9,3 19,0   0,3
18.08.1977     1008,0 15,7           12,4 20,4   0,0
19.08.1977     1005,0 13,3           11,7 16,9   3,4
20.08.1977     1005,8 12,7           9,0 17,2   1,3
21.08.1977     1000,9 13,2           7,0 19,1   19,4
22.08.1977     999,5 11,0           10,5 12,6   16,1
23.08.1977     1009,5 12,6           9,6 15,5   0,0
24.08.1977     1015,6 12,0           9,0 17,5   0,0
25.08.1977     1013,8 14,7           7,2 21,4   0,0
26.08.1977     1012,9 16,5           11,4 23,6   8,8
27.08.1977     1014,9 15,1           12,8 19,4   2,4
28.08.1977     1018,8 14,0           10,6 19,3   0,0
29.08.1977     1018,2 15,3           11,5 21,0   0,0
30.08.1977     1013,9 18,5           13,3 25,2   0,0
31.08.1977     1014,8 18,3           14,4 25,6   22,0
01.09.1977     1016,2 18,4           15,2 20,4   1,2
02.09.1977     1017,7 16,5           12,3 22,2   0,0
03.09.1977     1017,1 15,8           13,5 21,5   7,2
04.09.1977     1022,3 12,0           11,4 15,0   0,0
05.09.1977     1022,7 15,2           11,7 20,4   0,0
06.09.1977     1023,8 15,4           13,1 21,0   0,0
07.09.1977     1022,1 15,8           12,1 20,0   8,8
08.09.1977     1017,7 12,0           10,7 16,3   2,6
09.09.1977     1020,5 9,4           7,5 14,3   1,2
10.09.1977     1021,4 9,9           4,7 12,0   0,1
11.09.1977     1021,0 14,2           10,4 17,5   0,0
12.09.1977     1019,9 14,6           12,2 20,5   0,0
13.09.1977     1027,8 6,7           4,5 12,2   0,0
14.09.1977     1027,8 8,3           -1,3 14,5   0,0
15.09.1977     1018,7 10,0           6,0 10,9   0,9
16.09.1977     1016,3 7,3           5,2 10,9   0,0
17.09.1977     1017,4 5,2           3,5 9,1   0,3
18.09.1977     1020,7 5,3           2,7 10,1   0,7
19.09.1977     1023,5 4,4           2,8 6,6   1,3
20.09.1977     1019,3 5,6           4,1 7,5   3,6
21.09.1977     1015,3 6,8           4,9 9,6   5,5
22.09.1977     1016,7 7,7           6,1 9,0   7,0
23.09.1977     1020,2 9,6           7,8 12,3   0,5
24.09.1977     1019,5 7,0           4,8 11,5   0,0
25.09.1977     1020,7 7,4           2,4 13,9   0,0
26.09.1977     1024,7 7,4           1,2 15,6   0,0
27.09.1977     1027,7 7,3           2,3 14,9   0,0
28.09.1977     1026,0 8,4           0,9 15,5   0,0
29.09.1977     1024,1 10,9           8,0 15,3   0,0
30.09.1977     1018,3 11,7           8,3 15,9   0,0
01.10.1977     1007,5 6,2           4,2 11,0   7,6
02.10.1977     1007,1 5,8           4,2 9,2   4,6
03.10.1977     1015,6 4,7           3,3 7,9   5,1
04.10.1977     1014,5 7,6           2,7 11,2   1,8
05.10.1977     1011,1 11,2           7,0 12,8   1,2
06.10.1977     1006,0 13,9           8,6 21,3   0,0
07.10.1977     1005,2 13,5           9,3 20,9   0,0
08.10.1977     1004,0 12,6           9,4 20,2   0,0
09.10.1977     1007,6 12,2           8,2 16,6   0,0
10.10.1977     1011,3 10,5           9,8 12,9   17,5
11.10.1977     1019,3 7,9           6,7 10,1   0,2
12.10.1977     1021,0 7,4           3,5 14,2   0,0
13.10.1977     1023,0 7,7           5,9 11,1   0,0
14.10.1977     1022,6 7,4           4,0 12,8   0,0
15.10.1977     1021,8 6,1           1,4 12,7   0,1
16.10.1977     1021,9 5,0           1,0 11,2   0,0
17.10.1977     1021,8 4,5           1,9 6,4   0,0
18.10.1977     1021,3 4,4           2,5 7,0   0,0
19.10.1977     1023,2 7,1           2,5 15,5   0,0
20.10.1977     1024,2 7,6           0,2 17,9   0,1
21.10.1977     1021,9 9,8           3,0 16,0   0,0
22.10.1977     1021,0 7,9           4,4 18,0   0,0
23.10.1977     1024,4 11,4           4,1 15,4   0,0
24.10.1977     1026,6 11,3           9,5 15,5   0,2
25.10.1977     1026,4 10,6           8,6 13,9   0,1
26.10.1977     1026,7 9,2           5,9 12,4   0,0
27.10.1977     1022,6 9,0           7,6 10,4   0,1
28.10.1977     1022,2 9,8           7,6 11,1   2,4
29.10.1977     1025,0 7,6           7,2 10,0   13,1
30.10.1977     1023,0 6,2           4,5 8,6   0,0
31.10.1977     1014,9 7,1           3,9 10,4   5,2
01.11.1977     1013,9 5,6           3,2 9,3   3,1
02.11.1977     1013,0 4,5           1,6 6,0   16,6
03.11.1977     1004,7 11,6           5,0 12,4   25,6
04.11.1977     1009,0 7,5           6,9 12,0   5,0
05.11.1977     1016,2 6,8           4,0 8,4   0,0
06.11.1977     1015,7 7,7           2,4 11,6   0,0
07.11.1977     1020,2 9,9           5,1 14,1   0,0
08.11.1977     1021,7 10,1           6,6 12,6   0,1
09.11.1977     1019,8 9,9           7,7 10,9   5,0
10.11.1977     1021,8 10,2           7,8 13,6   0,0
11.11.1977     1019,4 11,0           7,2 13,9   0,0
12.11.1977     1005,5 7,4           2,5 13,1   12,1
13.11.1977     1003,6 0,9           -0,3 3,1   0,2
14.11.1977     993,3 1,8           -0,5 3,4   15,0
15.11.1977     989,5 1,8           0,7 7,9   2,2
16.11.1977     992,7 1,1           0,0 1,7   1,5
17.11.1977     994,2 0,0           -0,6 1,6   2,9
18.11.1977     1005,5 0,5           -0,3 1,5   2,4
19.11.1977     1013,0 0,1           -0,6 0,6   0,7
20.11.1977     1004,3 0,7           -0,2 2,7   0,0
21.11.1977     992,9 0,4           -1,6 1,9   1,4
22.11.1977     997,7 0,5           -0,3 0,8   2,7
23.11.1977     1009,5 0,8           0,1 1,4   1,0
24.11.1977     1001,0 2,2           0,4 2,4   10,2
25.11.1977     1004,3 0,4           0,2 2,4   1,9
26.11.1977     1008,5 0,4           -1,5 0,2   4,3
27.11.1977     1012,7 -2,1           -2,4 -1,4   0,6
28.11.1977     1019,8 -4,8           -6,5 -2,3   0,1
29.11.1977     1018,7 -6,7           -9,0 -0,7   0,0
30.11.1977     1012,0 -6,5           -15,0 -2,7   2,0
01.12.1977     1015,1 -2,0           -4,0 -1,5   0,4
02.12.1977     1022,9 -2,5           -3,6 -2,2   1,7
03.12.1977     1031,1 -0,8           -2,3 -0,1   0,5
04.12.1977     1027,8 -4,2           -8,0 -0,3   0,0
05.12.1977     1015,6 -7,1           -10,6 -1,4   0,0
06.12.1977     999,9 -8,0           -11,5 -6,7   1,0
07.12.1977     1004,2 0,2           -7,0 3,0   0,3
08.12.1977     1004,2 -0,9           -2,5 -0,1   0,0
09.12.1977     1007,9 -0,2           -0,8 0,4   0,2
10.12.1977     1013,8 0,9           -0,3 1,8   0,0
11.12.1977     1020,3 -1,0           -1,4 1,2   6,7
12.12.1977     1023,6 -1,3           -1,7 -0,9   6,9
13.12.1977     1028,3 1,4           -1,4 2,1   0,0
14.12.1977     1029,7 1,4           0,5 2,0   0,0
15.12.1977     1030,2 1,3           1,0 2,4   0,4
16.12.1977     1033,1 0,8           0,3 2,8   0,0
17.12.1977     1027,5 -1,3           -1,9 0,4   0,0
18.12.1977     1023,8 -2,4           -4,0 1,3   0,0
19.12.1977     1022,2 -3,6           -5,0 0,8   0,0
20.12.1977     1023,4 -3,3           -5,8 1,7   0,0
21.12.1977     1022,5 -4,5           -6,5 -0,3   0,1
22.12.1977     1024,7 -2,9           -6,6 -1,8   0,0
23.12.1977     1022,5 1,4           -2,0 2,9   2,3
24.12.1977     1013,7 7,7           1,6 10,0   3,2
25.12.1977     1017,0 3,5           3,2 7,5   4,2
26.12.1977     1019,4 2,6           1,5 3,3   0,2
27.12.1977     1003,3 2,6           0,9 5,5   4,0
28.12.1977     1002,7 0,6           0,0 3,1   0,2
29.12.1977     1008,7 0,4           0,0 0,7   4,5
30.12.1977     996,1 -0,9           -2,6 0,4   6,9
31.12.1977     1004,6 -1,0           -2,3 -0,3   5,6